Time;durP1;ratioP1;P1;durP2;ratioP2;P2;SDS_P1;SDS_P2;PMS_P1;PMS_P2;Temp;Humidity;BMP_temperature;BMP_pressure;BME280_temperature;BME280_humidity;BME280_pressure;Samples;Min_cycle;Max_cycle;Signal;HPM_P1;HPM_P2
2023/04/17 00:01:55;;;;;;;0.60;0.60;;;;;;;6.51;29.79;100323.38;4954828;29;20051;-79
2023/04/17 00:04:22;;;;;;;0.50;0.50;;;;;;;6.48;30.27;100325.56;4954999;29;20055;-79
2023/04/17 00:06:52;;;;;;;0.60;0.60;;;;;;;6.44;30.36;100322.44;4954630;29;20055;-79
2023/04/17 00:09:19;;;;;;;0.50;0.50;;;;;;;6.46;30.37;100325.78;4937875;29;20529;-79
2023/04/17 00:11:47;;;;;;;0.60;0.60;;;;;;;6.45;30.47;100325.94;4937557;29;20066;-80
2023/04/17 00:14:14;;;;;;;0.50;0.50;;;;;;;6.43;29.78;100326.16;4955062;29;20047;-79
2023/04/17 00:16:41;;;;;;;0.50;0.50;;;;;;;6.43;30.00;100323.47;4967229;28;20047;-79
2023/04/17 00:19:08;;;;;;;0.60;0.60;;;;;;;6.37;30.64;100320.69;4973089;28;20046;-78
2023/04/17 00:21:35;;;;;;;0.57;0.57;;;;;;;6.33;30.88;100325.59;4973732;28;20078;-79
2023/04/17 00:24:02;;;;;;;0.60;0.60;;;;;;;6.30;30.98;100323.25;4940581;28;20487;-80
2023/04/17 00:26:31;;;;;;;0.60;0.60;;;;;;;6.23;30.97;100317.81;4974400;28;20473;-80
2023/04/17 00:28:58;;;;;;;0.50;0.50;;;;;;;6.26;30.69;100324.66;4974246;28;20137;-79
2023/04/17 00:31:25;;;;;;;0.60;0.60;;;;;;;6.20;30.85;100323.56;4954285;29;20051;-78
2023/04/17 00:33:52;;;;;;;0.60;0.60;;;;;;;6.19;30.90;100332.59;4954204;29;20388;-80
2023/04/17 00:36:19;;;;;;;0.60;0.60;;;;;;;6.18;30.75;100332.75;4954521;28;20083;-80
2023/04/17 00:38:46;;;;;;;0.60;0.60;;;;;;;6.22;30.56;100323.34;4954108;29;20051;-80
2023/04/17 00:41:13;;;;;;;0.57;0.57;;;;;;;6.23;30.36;100325.03;4937162;29;20110;-80
2023/04/17 00:43:41;;;;;;;0.50;0.50;;;;;;;6.18;30.48;100328.25;4953777;29;20395;-80
2023/04/17 00:46:09;;;;;;;0.60;0.60;;;;;;;6.17;30.72;100326.59;4936998;29;20047;-80
2023/04/17 00:48:36;;;;;;;0.50;0.50;;;;;;;6.19;30.35;100326.41;4936750;29;20426;-80
2023/04/17 00:51:03;;;;;;;0.55;0.55;;;;;;;6.14;30.72;100326.94;4936723;29;20507;-79
2023/04/17 00:53:32;;;;;;;0.60;0.60;;;;;;;6.05;30.74;100328.03;4953754;29;20055;-80
2023/04/17 00:56:00;;;;;;;0.60;0.60;;;;;;;6.08;30.67;100333.88;4936721;29;20421;-79
2023/04/17 00:58:29;;;;;;;0.60;0.60;;;;;;;6.07;30.79;100332.19;4920728;29;20502;-78
2023/04/17 01:00:56;;;;;;;0.40;0.40;;;;;;;6.03;30.85;100320.19;4953634;29;20502;-79
2023/04/17 01:03:24;;;;;;;0.60;0.60;;;;;;;6.06;30.42;100324.38;4936749;29;20042;-79
2023/04/17 01:05:57;;;;;;;0.60;0.60;;;;;;;6.08;30.42;100328.53;4921140;29;20479;-79
2023/04/17 01:08:24;;;;;;;0.55;0.55;;;;;;;6.08;30.67;100316.97;4936753;29;20047;-79
2023/04/17 01:10:52;;;;;;;0.60;0.60;;;;;;;6.08;30.75;100328.53;4903436;29;20059;-79
2023/04/17 01:13:21;;;;;;;0.60;0.60;;;;;;;6.11;30.63;100327.31;4966907;28;20382;-79
2023/04/17 01:15:50;;;;;;;0.60;0.60;;;;;;;6.06;30.73;100324.38;4954698;28;20102;-79
2023/04/17 01:18:17;;;;;;;0.60;0.60;;;;;;;6.05;30.77;100318.19;4955344;28;20531;-79
2023/04/17 01:20:45;;;;;;;0.60;0.60;;;;;;;6.05;30.76;100333.41;4955071;28;20051;-79
2023/04/17 01:23:14;;;;;;;0.60;0.60;;;;;;;6.02;30.66;100328.41;4955581;28;20047;-79
2023/04/17 01:25:45;;;;;;;0.52;0.52;;;;;;;6.02;30.66;100321.19;4968047;28;20051;-78
2023/04/17 01:28:12;;;;;;;0.60;0.60;;;;;;;5.98;30.93;100319.91;4936157;29;20055;-79
2023/04/17 01:31:05;;;;;;;0.60;0.60;;;;;;;6.01;30.89;100318.72;4935460;29;20054;-79
2023/04/17 01:33:33;;;;;;;0.60;0.60;;;;;;;5.99;30.58;100318.88;4952959;29;20047;-79
2023/04/17 01:36:03;;;;;;;0.60;0.60;;;;;;;6.00;30.85;100317.91;4952780;28;20110;-79
2023/04/17 01:38:30;;;;;;;0.57;0.57;;;;;;;5.99;30.68;100312.72;4919775;29;20058;-79
2023/04/17 01:40:57;;;;;;;0.68;0.68;;;;;;;5.95;30.93;100327.47;4935768;29;20102;-79
2023/04/17 01:43:32;;;;;;;0.60;0.60;;;;;;;5.92;30.97;100322.44;4952995;29;20054;-79
2023/04/17 01:45:59;;;;;;;0.50;0.50;;;;;;;5.90;31.08;100324.47;4935723;29;20553;-79
2023/04/17 01:48:26;;;;;;;0.60;0.60;;;;;;;5.85;31.04;100327.72;4935475;29;20059;-79
2023/04/17 01:50:53;;;;;;;0.60;0.60;;;;;;;5.83;31.04;100329.75;4935807;29;20043;-80
2023/04/17 01:53:22;;;;;;;0.60;0.60;;;;;;;5.86;30.77;100327.53;4953232;29;20400;-79
2023/04/17 01:55:49;;;;;;;0.60;0.60;;;;;;;5.85;30.93;100323.19;4935327;29;20079;-78
2023/04/17 01:58:16;;;;;;;0.52;0.52;;;;;;;5.84;30.99;100328.72;4935576;29;20427;-79
2023/04/17 02:00:47;;;;;;;0.60;0.60;;;;;;;5.82;30.98;100320.88;4952355;29;20073;-80
2023/04/17 02:03:15;;;;;;;0.50;0.50;;;;;;;5.88;30.59;100323.84;4904144;29;20058;-79
2023/04/17 02:05:46;;;;;;;0.50;0.50;;;;;;;5.91;30.82;100326.97;4952905;29;20055;-80
2023/04/17 02:08:13;;;;;;;0.50;0.50;;;;;;;5.92;30.57;100320.59;4958147;28;20098;-81
2023/04/17 02:10:41;;;;;;;0.60;0.60;;;;;;;5.92;30.65;100312.56;4919874;29;20048;-80
2023/04/17 02:13:11;;;;;;;0.60;0.60;;;;;;;5.87;30.66;100312.28;4933522;29;20051;-79
2023/04/17 02:15:42;;;;;;;0.57;0.57;;;;;;;5.85;30.92;100322.38;4901596;29;20119;-80
2023/04/17 02:18:10;;;;;;;0.60;0.60;;;;;;;5.85;30.76;100319.69;4933697;29;20055;-81
2023/04/17 02:20:42;;;;;;;0.60;0.60;;;;;;;5.84;30.98;100320.69;4933457;29;20057;-80
2023/04/17 02:23:09;;;;;;;0.60;0.60;;;;;;;5.84;30.92;100316.16;4926834;29;20055;-81
2023/04/17 02:25:37;;;;;;;0.60;0.60;;;;;;;5.88;31.19;100316.63;4932931;29;20062;-80
2023/04/17 02:28:05;;;;;;;0.55;0.55;;;;;;;5.88;30.91;100319.31;4933346;29;20055;-80
2023/04/17 02:30:36;;;;;;;0.50;0.50;;;;;;;5.90;30.93;100319.13;4931662;29;20056;-79
2023/04/17 02:33:03;;;;;;;0.70;0.70;;;;;;;5.94;31.06;100307.88;4916444;29;20102;-80
2023/04/17 02:35:31;;;;;;;0.60;0.60;;;;;;;5.95;30.83;100309.56;4927272;29;20354;-80
2023/04/17 02:37:59;;;;;;;0.60;0.60;;;;;;;6.01;30.95;100310.69;4952990;29;20062;-78
2023/04/17 02:40:34;;;;;;;0.60;0.60;;;;;;;6.02;31.05;100313.16;4934891;29;20058;-78
2023/04/17 02:43:01;;;;;;;0.60;0.60;;;;;;;6.03;30.92;100304.13;4937390;29;20047;-80
2023/04/17 02:45:29;;;;;;;0.50;0.50;;;;;;;6.03;30.92;100314.00;4938657;29;20051;-79
2023/04/17 02:47:56;;;;;;;0.50;0.50;;;;;;;6.06;30.83;100313.66;4956208;29;20055;-79
2023/04/17 02:50:24;;;;;;;0.60;0.60;;;;;;;6.10;31.16;100314.91;4955955;29;20467;-80
2023/04/17 02:53:05;;;;;;;0.60;0.60;;;;;;;6.12;30.90;100306.72;4938915;29;20506;-80
2023/04/17 02:55:32;;;;;;;0.55;0.55;;;;;;;6.12;30.83;100312.91;4938673;29;20454;-79
2023/04/17 02:57:59;;;;;;;0.60;0.60;;;;;;;6.12;31.07;100312.06;4938861;29;20074;-80
2023/04/17 03:00:28;;;;;;;0.60;0.60;;;;;;;6.10;31.15;100301.53;4938645;29;20043;-80
2023/04/17 03:02:56;;;;;;;0.60;0.60;;;;;;;6.12;30.99;100312.06;4938641;29;20062;-79
2023/04/17 03:05:29;;;;;;;0.60;0.60;;;;;;;6.12;31.13;100314.75;4968326;28;20466;-78
2023/04/17 03:07:58;;;;;;;0.55;0.55;;;;;;;6.11;31.05;100313.09;4957956;28;20510;-80
2023/04/17 03:10:30;;;;;;;0.63;0.63;;;;;;;6.12;31.03;100322.78;4943115;29;20047;-79
2023/04/17 03:12:57;;;;;;;0.50;0.50;;;;;;;6.10;31.34;100320.28;4938278;29;20098;-79
2023/04/17 03:15:28;;;;;;;0.50;0.50;;;;;;;6.06;31.39;100319.84;4938342;29;20515;-80
2023/04/17 03:17:55;;;;;;;0.47;0.47;;;;;;;6.14;31.35;100328.81;4955397;29;20062;-79
2023/04/17 03:20:22;;;;;;;0.52;0.52;;;;;;;6.16;31.16;100326.78;4938312;29;20059;-78
2023/04/17 03:22:49;;;;;;;0.60;0.60;;;;;;;6.20;31.44;100333.44;4955271;29;20106;-80
2023/04/17 03:25:16;;;;;;;0.60;0.60;;;;;;;6.26;31.12;100330.03;4955132;29;20069;-79
2023/04/17 03:27:51;;;;;;;0.60;0.60;;;;;;;6.29;31.49;100335.00;4955175;29;20066;-79
2023/04/17 03:30:24;;;;;;;0.60;0.60;;;;;;;6.29;31.81;100351.09;4937958;29;20058;-78
2023/04/17 03:32:55;;;;;;;0.50;0.50;;;;;;;6.24;31.43;100340.09;4922249;29;20503;-79
2023/04/17 03:35:25;;;;;;;0.60;0.60;;;;;;;6.15;31.65;100349.22;4938037;29;20079;-80
2023/04/17 03:37:54;;;;;;;0.40;0.40;;;;;;;6.15;31.56;100342.00;4937847;29;20466;-79
2023/04/17 03:40:22;;;;;;;0.50;0.50;;;;;;;6.15;31.94;100355.41;4937817;29;20050;-80
2023/04/17 03:42:49;;;;;;;0.70;0.70;;;;;;;6.13;31.82;100356.59;4937857;29;20472;-79
2023/04/17 03:45:20;;;;;;;0.68;0.68;;;;;;;6.16;32.01;100357.09;4955099;29;20097;-79
2023/04/17 03:47:47;;;;;;;0.50;0.50;;;;;;;6.13;31.93;100353.94;4921342;29;20430;-79
2023/04/17 03:50:14;;;;;;;0.60;0.60;;;;;;;6.15;31.91;100359.94;4937525;29;20070;-78
2023/04/17 03:52:48;;;;;;;0.60;0.60;;;;;;;6.10;31.76;100359.66;4937361;29;20058;-78
2023/04/17 03:55:32;;;;;;;0.60;0.60;;;;;;;6.13;32.17;100357.47;4955123;29;20298;-78
2023/04/17 03:58:00;;;;;;;0.57;0.57;;;;;;;6.11;32.37;100372.91;4937684;29;20047;-80
2023/04/17 04:00:30;;;;;;;0.65;0.65;;;;;;;6.17;32.05;100347.19;4925095;28;20051;-80
2023/04/17 04:03:05;;;;;;;0.70;0.70;;;;;;;6.36;31.80;100359.25;4956848;28;20054;-79
2023/04/17 04:05:38;;;;;;;0.70;0.70;;;;;;;6.55;31.81;100352.50;4956072;28;20046;-79
2023/04/17 04:08:13;;;;;;;0.65;0.65;;;;;;;6.58;31.76;100361.00;4957802;28;20875;-80
2023/04/17 04:10:52;;;;;;;0.52;0.52;;;;;;;6.59;31.94;100364.53;4939767;29;20055;-81
2023/04/17 04:13:27;;;;;;;0.50;0.50;;;;;;;6.57;32.10;100350.47;4922897;29;20503;-80
2023/04/17 04:16:44;;;;;;;0.50;0.50;;;;;;;6.60;32.09;100342.88;4940490;29;20138;-81
2023/04/17 04:19:46;;;;;;;0.63;0.63;;;;;;;6.71;31.87;100360.38;4944695;29;20063;-82
2023/04/17 04:22:15;;;;;;;0.65;0.65;;;;;;;6.75;32.33;100360.81;4936954;29;20048;-78
2023/04/17 04:24:52;;;;;;;0.57;0.57;;;;;;;6.83;32.08;100361.53;4940447;29;20047;-80
2023/04/17 04:27:26;;;;;;;0.60;0.60;;;;;;;6.97;31.75;100362.53;4924055;29;20051;-79
2023/04/17 04:29:57;;;;;;;0.68;0.68;;;;;;;7.09;31.66;100365.56;4925112;29;20581;-79
2023/04/17 04:32:27;;;;;;;0.60;0.60;;;;;;;7.22;31.41;100352.31;4931723;29;20043;-79
2023/04/17 04:35:19;;;;;;;0.70;0.70;;;;;;;7.30;31.44;100365.59;4936336;29;20562;-81
2023/04/17 04:37:47;;;;;;;0.70;0.70;;;;;;;7.38;31.42;100362.78;4951509;29;20063;-81
2023/04/17 04:40:14;;;;;;;0.60;0.60;;;;;;;7.44;31.30;100357.69;4921132;29;20047;-82
2023/04/17 04:42:48;;;;;;;0.60;0.60;;;;;;;7.39;31.37;100369.00;4934152;29;20051;-82
2023/04/17 04:45:41;;;;;;;0.70;0.70;;;;;;;7.50;31.20;100359.63;4921608;29;20047;-83
2023/04/17 04:48:08;;;;;;;0.60;0.60;;;;;;;7.62;31.37;100362.63;4947497;29;20043;-82
2023/04/17 04:50:38;;;;;;;0.60;0.60;;;;;;;7.76;31.23;100353.66;4944922;29;20066;-81
2023/04/17 04:53:05;;;;;;;0.60;0.60;;;;;;;7.76;31.20;100349.09;4931581;28;20059;-84
2023/04/17 04:55:47;;;;;;;0.70;0.70;;;;;;;7.82;31.15;100353.72;4919469;29;20047;-81
2023/04/17 04:58:33;;;;;;;0.50;0.50;;;;;;;7.81;31.07;100353.91;4941019;28;20048;-80
2023/04/17 05:01:02;;;;;;;0.60;0.60;;;;;;;8.00;30.84;100366.69;4915994;29;20110;-80
2023/04/17 05:03:37;;;;;;;0.63;0.63;;;;;;;8.09;30.69;100350.41;4933491;29;20051;-79
2023/04/17 05:06:08;;;;;;;0.60;0.60;;;;;;;8.28;30.44;100362.31;4933511;29;20065;-80
2023/04/17 05:08:43;;;;;;;0.60;0.60;;;;;;;8.38;30.34;100368.19;4913964;28;20055;-80
2023/04/17 05:11:14;;;;;;;0.60;0.60;;;;;;;8.45;30.14;100358.34;4930580;29;20079;-80
2023/04/17 05:13:42;;;;;;;0.68;0.68;;;;;;;8.37;30.17;100358.47;4925581;29;20056;-79
2023/04/17 05:16:23;;;;;;;0.60;0.60;;;;;;;8.31;30.42;100362.78;4928668;29;20050;-79
2023/04/17 05:18:51;;;;;;;0.60;0.60;;;;;;;8.24;30.17;100361.91;4914366;29;20644;-82
2023/04/17 05:21:28;;;;;;;0.60;0.60;;;;;;;8.16;30.56;100362.06;4902350;29;20098;-80
2023/04/17 05:23:57;;;;;;;0.63;0.63;;;;;;;8.04;30.98;100364.44;4936969;28;20110;-81
2023/04/17 05:26:26;;;;;;;0.50;0.50;;;;;;;7.89;31.28;100363.69;4930297;28;20104;-80
2023/04/17 05:28:53;;;;;;;0.60;0.60;;;;;;;7.89;31.55;100369.06;4922074;28;20051;-79
2023/04/17 05:31:25;;;;;;;0.60;0.60;;;;;;;7.78;31.11;100347.06;4936428;29;20054;-82
2023/04/17 05:33:54;;;;;;;0.60;0.60;;;;;;;7.97;31.42;100360.84;4918911;29;20043;-80
2023/04/17 05:36:22;;;;;;;0.68;0.68;;;;;;;8.50;30.82;100366.66;4935866;29;20062;-81
2023/04/17 05:38:55;;;;;;;0.70;0.70;;;;;;;9.28;30.28;100366.38;4934618;28;20501;-78
2023/04/17 05:41:22;;;;;;;0.60;0.60;;;;;;;9.26;29.81;100365.75;4959160;28;20511;-80
2023/04/17 05:43:49;;;;;;;0.60;0.60;;;;;;;9.18;29.72;100376.72;4934758;29;20058;-79
2023/04/17 05:46:17;;;;;;;0.60;0.60;;;;;;;9.09;30.07;100359.91;4934757;29;20074;-80
2023/04/17 05:48:44;;;;;;;0.60;0.60;;;;;;;9.16;30.36;100373.38;4919516;29;20129;-79
2023/04/17 05:51:12;;;;;;;0.60;0.60;;;;;;;9.35;30.06;100374.50;4952357;29;20062;-81
2023/04/17 05:53:39;;;;;;;0.60;0.60;;;;;;;9.55;30.09;100367.28;4943160;28;20054;-79
2023/04/17 05:56:06;;;;;;;0.70;0.70;;;;;;;9.57;30.03;100361.69;4954170;28;20055;-80
2023/04/17 05:58:35;;;;;;;0.50;0.50;;;;;;;9.54;29.84;100369.16;4938262;28;20050;-80
2023/04/17 06:01:05;;;;;;;0.60;0.60;;;;;;;9.62;29.99;100367.28;4938739;28;20043;-82
2023/04/17 06:03:33;;;;;;;0.60;0.60;;;;;;;9.61;29.89;100368.34;4954296;28;20043;-80
2023/04/17 06:06:16;;;;;;;0.60;0.60;;;;;;;9.72;29.73;100368.56;4954892;28;20046;-80
2023/04/17 06:08:45;;;;;;;0.60;0.60;;;;;;;9.74;29.68;100354.88;4919465;29;20134;-82
2023/04/17 06:11:16;;;;;;;0.60;0.60;;;;;;;9.94;29.64;100355.69;4933173;29;20138;-80
2023/04/17 06:13:43;;;;;;;0.60;0.60;;;;;;;10.18;29.43;100356.94;4916570;29;20052;-81
2023/04/17 06:16:10;;;;;;;0.60;0.60;;;;;;;10.23;29.48;100359.03;4931258;29;20594;-80
2023/04/17 06:18:39;;;;;;;0.50;0.50;;;;;;;10.29;29.53;100366.31;4915855;29;20158;-80
2023/04/17 06:21:06;;;;;;;0.60;0.60;;;;;;;10.13;29.28;100361.31;4931751;29;20051;-81
2023/04/17 06:23:35;;;;;;;0.50;0.50;;;;;;;10.19;29.23;100365.88;4915676;29;20054;-81
2023/04/17 06:26:02;;;;;;;0.60;0.60;;;;;;;10.19;29.56;100368.56;4932774;29;20055;-80
2023/04/17 06:28:29;;;;;;;0.60;0.60;;;;;;;10.26;29.75;100372.09;4932512;29;20051;-80
2023/04/17 06:30:58;;;;;;;0.50;0.50;;;;;;;10.21;29.80;100374.59;4916018;29;20074;-82
2023/04/17 06:33:25;;;;;;;0.50;0.50;;;;;;;10.22;29.85;100370.84;4900484;29;20051;-82
2023/04/17 06:35:54;;;;;;;0.50;0.50;;;;;;;10.36;29.85;100371.69;4930712;29;20526;-80
2023/04/17 06:38:32;;;;;;;0.55;0.55;;;;;;;10.43;29.91;100375.19;4919060;29;20142;-80
2023/04/17 06:41:06;;;;;;;0.60;0.60;;;;;;;10.58;29.63;100373.13;4919088;29;20083;-79
2023/04/17 06:43:34;;;;;;;0.57;0.57;;;;;;;10.63;29.59;100372.47;4919094;29;20912;-80
2023/04/17 06:46:11;;;;;;;0.60;0.60;;;;;;;10.94;29.16;100376.31;4920475;29;20098;-81
2023/04/17 06:48:38;;;;;;;0.50;0.50;;;;;;;11.06;29.28;100378.16;4951648;29;20102;-81
2023/04/17 06:51:06;;;;;;;0.60;0.60;;;;;;;11.18;29.35;100378.28;4969346;28;20042;-80
2023/04/17 06:53:33;;;;;;;0.60;0.60;;;;;;;11.42;29.06;100381.28;4971015;28;20054;-79
2023/04/17 06:56:03;;;;;;;0.60;0.60;;;;;;;11.61;28.77;100374.13;4950029;28;20145;-81
2023/04/17 06:58:30;;;;;;;0.60;0.60;;;;;;;11.69;28.65;100382.78;4917967;29;20071;-84
2023/04/17 07:01:02;;;;;;;0.50;0.50;;;;;;;11.62;28.80;100387.44;4946480;29;20055;-79
2023/04/17 07:03:31;;;;;;;0.60;0.60;;;;;;;11.58;28.73;100383.50;4945929;28;20174;-82
2023/04/17 07:05:58;;;;;;;0.60;0.60;;;;;;;11.28;29.21;100372.44;4945169;28;20059;-84
2023/04/17 07:08:28;;;;;;;0.60;0.60;;;;;;;11.10;29.20;100380.44;4948191;28;20052;-83
2023/04/17 07:11:00;;;;;;;0.50;0.50;;;;;;;11.17;29.78;100373.94;4950727;28;20106;-84
2023/04/17 07:13:31;;;;;;;0.50;0.50;;;;;;;11.25;29.77;100378.28;4953534;28;20054;-81
2023/04/17 07:16:02;;;;;;;0.60;0.60;;;;;;;11.28;29.46;100377.84;4938014;29;20107;-81
2023/04/17 07:18:29;;;;;;;0.50;0.50;;;;;;;11.28;29.58;100380.53;4931474;29;20075;-81
2023/04/17 07:20:57;;;;;;;0.60;0.60;;;;;;;11.39;29.94;100381.72;4906016;29;20051;-82
2023/04/17 07:23:24;;;;;;;0.60;0.60;;;;;;;11.43;29.63;100388.38;4934456;29;20054;-79
2023/04/17 07:25:51;;;;;;;0.60;0.60;;;;;;;11.63;29.31;100386.38;4944149;29;20051;-82
2023/04/17 07:28:25;;;;;;;0.50;0.50;;;;;;;11.79;29.33;100386.91;4910591;29;20052;-81
2023/04/17 07:30:53;;;;;;;0.60;0.60;;;;;;;11.97;28.99;100384.28;4937555;29;20058;-81
2023/04/17 07:33:21;;;;;;;0.57;0.57;;;;;;;12.12;28.88;100378.56;4950343;29;20494;-83
2023/04/17 07:35:48;;;;;;;0.70;0.70;;;;;;;12.15;28.94;100380.81;4949914;28;20067;-81
2023/04/17 07:38:15;;;;;;;0.80;0.80;;;;;;;12.70;28.21;100383.63;4956727;28;20128;-80
2023/04/17 07:40:43;;;;;;;0.60;0.60;;;;;;;13.17;27.63;100383.91;4922856;29;20093;-81
2023/04/17 07:43:10;;;;;;;0.60;0.60;;;;;;;13.30;27.61;100388.38;4594921;28;10000438;-81
2023/04/17 07:45:38;;;;;;;0.52;0.52;;;;;;;12.65;27.84;100385.34;4916493;29;20047;-82
2023/04/17 07:48:10;;;;;;;0.50;0.50;;;;;;;12.23;28.91;100382.41;4959218;28;20059;-85
2023/04/17 07:50:41;;;;;;;0.70;0.70;;;;;;;12.38;28.64;100380.19;4939741;29;20075;-81
2023/04/17 07:53:09;;;;;;;0.60;0.60;;;;;;;12.53;28.29;100377.97;4899975;29;20513;-82
2023/04/17 07:55:36;;;;;;;0.50;0.50;;;;;;;12.92;27.74;100365.03;4915939;29;20047;-82
2023/04/17 07:58:05;;;;;;;0.80;0.80;;;;;;;13.24;27.21;100372.97;4915229;29;20714;-80
2023/04/17 08:00:32;;;;;;;0.60;0.60;;;;;;;13.33;27.38;100363.50;4944820;29;20055;-81
2023/04/17 08:03:00;;;;;;;0.60;0.60;;;;;;;13.50;26.97;100362.88;4934687;29;20110;-82
2023/04/17 08:05:28;;;;;;;0.50;0.50;;;;;;;13.08;27.09;100370.91;4950790;29;20062;-81
2023/04/17 08:07:56;;;;;;;0.50;0.50;;;;;;;12.73;27.25;100369.63;4951643;29;20423;-82
2023/04/17 08:10:28;;;;;;;0.70;0.70;;;;;;;12.46;27.47;100360.97;4918600;29;20080;-83
2023/04/17 08:12:56;;;;;;;0.70;0.70;;;;;;;13.00;26.70;100372.03;4934451;29;20047;-81
2023/04/17 08:15:26;;;;;;;0.70;0.70;;;;;;;13.53;26.01;100382.22;4951217;29;20047;-80
2023/04/17 08:17:55;;;;;;;0.70;0.70;;;;;;;13.71;25.62;100378.59;4955298;29;20569;-83
2023/04/17 08:20:23;;;;;;;0.70;0.70;;;;;;;14.21;25.13;100353.81;4923019;29;20045;-81
2023/04/17 08:22:50;;;;;;;0.70;0.70;;;;;;;14.70;24.70;100370.69;4953897;29;20053;-80
2023/04/17 08:25:20;;;;;;;0.70;0.70;;;;;;;15.36;24.39;100346.72;4951184;29;20974;-82
2023/04/17 08:27:47;;;;;;;0.60;0.60;;;;;;;15.30;23.57;100360.50;4933650;28;20360;-81
2023/04/17 08:30:16;;;;;;;0.70;0.70;;;;;;;15.22;23.52;100350.84;4936855;29;20043;-80
2023/04/17 08:32:51;;;;;;;0.65;0.65;;;;;;;15.81;22.93;100354.09;4949252;29;20060;-82
2023/04/17 08:35:19;;;;;;;0.70;0.70;;;;;;;16.06;22.12;100371.13;4924512;29;20111;-81
2023/04/17 08:37:49;;;;;;;0.60;0.60;;;;;;;15.39;22.87;100369.91;4934605;29;20135;-81
2023/04/17 08:40:17;;;;;;;0.65;0.65;;;;;;;15.20;23.06;100346.69;4918357;29;20131;-80
2023/04/17 08:42:46;;;;;;;0.60;0.60;;;;;;;15.28;22.93;100357.19;4934640;29;20539;-81
2023/04/17 08:45:15;;;;;;;0.60;0.60;;;;;;;15.16;23.04;100355.31;4937616;28;20052;-81
2023/04/17 08:47:42;;;;;;;0.68;0.68;;;;;;;15.49;23.02;100333.91;4957508;28;20110;-81
2023/04/17 08:50:12;;;;;;;0.60;0.60;;;;;;;15.76;22.06;100355.91;4936683;29;20051;-80
2023/04/17 08:52:47;;;;;;;0.80;0.80;;;;;;;15.80;22.19;100319.81;4951729;28;20059;-80
2023/04/17 08:55:23;;;;;;;0.60;0.60;;;;;;;16.09;22.17;100340.66;4953310;29;20138;-79
2023/04/17 08:58:06;;;;;;;0.60;0.60;;;;;;;15.95;22.38;100337.44;4952957;29;20051;-82
2023/04/17 09:00:39;;;;;;;0.60;0.60;;;;;;;15.92;22.14;100355.09;4935004;29;20500;-81
2023/04/17 09:03:09;;;;;;;0.60;0.60;;;;;;;15.88;22.44;100359.41;4936252;29;20074;-80
2023/04/17 09:05:40;;;;;;;0.70;0.70;;;;;;;16.17;22.13;100351.97;4944285;28;20048;-78
2023/04/17 09:08:08;;;;;;;0.50;0.50;;;;;;;16.20;22.24;100346.03;4941733;29;20460;-80
2023/04/17 09:10:50;;;;;;;0.50;0.50;;;;;;;16.15;22.33;100353.28;4948611;29;20541;-81
2023/04/17 09:13:24;;;;;;;0.52;0.52;;;;;;;15.87;22.71;100349.56;4953354;29;20051;-79
2023/04/17 09:16:18;;;;;;;0.60;0.60;;;;;;;15.38;22.51;100339.16;4920813;29;20539;-80
2023/04/17 09:18:46;;;;;;;0.60;0.60;;;;;;;15.29;22.47;100339.78;4946728;29;20438;-81
2023/04/17 09:21:17;;;;;;;0.70;0.70;;;;;;;15.04;22.73;100327.38;4904898;29;20200;-81
2023/04/17 09:23:49;;;;;;;0.60;0.60;;;;;;;15.27;22.72;100328.34;4930447;29;20059;-80
2023/04/17 09:26:18;;;;;;;0.88;0.88;;;;;;;15.98;22.04;100348.69;4946706;29;20503;-80
2023/04/17 09:29:10;;;;;;;0.60;0.60;;;;;;;15.86;22.37;100328.88;4942230;29;20059;-78
2023/04/17 09:31:40;;;;;;;0.60;0.60;;;;;;;16.25;21.60;100328.91;4938933;29;20066;-81
2023/04/17 09:34:14;;;;;;;0.80;0.80;;;;;;;16.95;20.89;100319.25;4928862;28;20445;-81
2023/04/17 09:36:44;;;;;;;0.60;0.60;;;;;;;16.77;21.30;100317.66;4965182;28;20054;-81
2023/04/17 09:39:19;;;;;;;0.80;0.80;;;;;;;17.55;20.87;100331.09;4916232;29;20520;-80
2023/04/17 09:41:47;;;;;;;0.70;0.70;;;;;;;18.41;20.12;100332.91;4934587;28;20050;-80
2023/04/17 09:44:25;;;;;;;0.60;0.60;;;;;;;18.35;19.52;100323.00;4947192;28;20466;-79
2023/04/17 09:46:53;;;;;;;0.50;0.50;;;;;;;16.80;20.90;100297.28;4934088;29;20082;-82
2023/04/17 09:49:40;;;;;;;0.60;0.60;;;;;;;16.94;21.27;100334.00;4925679;29;20133;-82
2023/04/17 09:52:08;;;;;;;0.50;0.50;;;;;;;17.23;20.50;100318.22;4942951;28;20142;-81
2023/04/17 09:54:36;;;;;;;0.40;0.40;;;;;;;17.47;20.67;100328.81;4941680;29;20059;-82
2023/04/17 09:57:09;;;;;;;0.50;0.50;;;;;;;17.10;20.33;100316.72;4940401;29;20054;-82
2023/04/17 09:59:40;;;;;;;0.50;0.50;;;;;;;16.63;20.97;100316.38;4917311;29;20179;-80
2023/04/17 10:02:12;;;;;;;0.50;0.50;;;;;;;16.18;21.66;100310.06;4949622;29;20051;-81
2023/04/17 10:04:40;;;;;;;0.40;0.40;;;;;;;15.86;22.18;100315.25;4950494;29;20066;-82
2023/04/17 10:07:08;;;;;;;0.50;0.50;;;;;;;15.66;22.11;100321.16;4935416;29;20517;-82
2023/04/17 10:09:40;;;;;;;0.50;0.50;;;;;;;15.38;22.01;100311.97;4919221;29;20054;-83
2023/04/17 10:12:17;;;;;;;0.50;0.50;;;;;;;15.24;22.77;100329.63;4944222;28;20054;-83
2023/04/17 10:14:47;;;;;;;;;;;;;;;15.34;22.88;100313.53;4951107;29;20048;-80
2023/04/17 10:17:22;;;;;;;0.50;0.50;;;;;;;15.72;22.72;100312.06;4915125;29;20032;-80
2023/04/17 10:20:18;;;;;;;0.50;0.50;;;;;;;15.62;22.48;100314.53;4942894;28;20495;-82
2023/04/17 10:22:55;;;;;;;0.40;0.40;;;;;;;15.28;22.61;100309.06;4943906;29;20083;-81
2023/04/17 10:25:24;;;;;;;0.50;0.50;;;;;;;15.10;23.02;100310.06;4930739;29;20043;-81
2023/04/17 10:27:59;;;;;;;0.43;0.43;;;;;;;14.69;23.77;100317.41;4950296;29;20149;-82
2023/04/17 10:30:52;;;;;;;0.50;0.50;;;;;;;14.78;23.83;100304.28;4916400;29;20503;-81
2023/04/17 10:33:24;;;;;;;0.50;0.50;;;;;;;14.89;23.94;100308.03;4914361;29;20089;-81
2023/04/17 10:35:52;;;;;;;0.50;0.50;;;;;;;15.02;24.23;100332.22;4942516;28;20059;-81
2023/04/17 10:38:44;;;;;;;0.50;0.50;;;;;;;15.25;24.24;100314.16;4931710;28;20043;-81
2023/04/17 10:41:11;;;;;;;0.50;0.50;;;;;;;15.51;23.96;100321.69;4958494;28;20047;-83
2023/04/17 10:43:40;;;;;;;0.50;0.50;;;;;;;15.15;24.02;100339.25;4933333;29;20558;-82
2023/04/17 10:46:11;;;;;;;0.50;0.50;;;;;;;14.87;24.31;100321.84;4965792;28;20454;-83
2023/04/17 10:48:51;;;;;;;0.50;0.50;;;;;;;15.25;24.23;100320.44;4938397;28;20065;-82
2023/04/17 10:51:26;;;;;;;0.50;0.50;;;;;;;15.63;23.61;100320.84;4940501;28;20521;-82
2023/04/17 10:53:58;;;;;;;0.50;0.50;;;;;;;15.93;23.38;100313.19;4951882;28;20083;-82
2023/04/17 10:56:34;;;;;;;0.50;0.50;;;;;;;16.08;23.20;100309.91;4932468;29;20150;-82
2023/04/17 10:59:04;;;;;;;0.50;0.50;;;;;;;16.15;23.40;100299.63;4915378;29;20451;-83
2023/04/17 11:01:46;;;;;;;0.50;0.50;;;;;;;16.43;23.28;100322.38;4943940;29;20138;-82
2023/04/17 11:04:29;;;;;;;0.50;0.50;;;;;;;16.14;23.09;100318.97;4954762;28;20078;-83
2023/04/17 11:06:59;;;;;;;0.60;0.60;;;;;;;16.18;23.30;100331.84;4937399;29;20461;-82
2023/04/17 11:09:28;;;;;;;0.60;0.60;;;;;;;17.01;22.45;100315.50;4918608;29;20056;-83
2023/04/17 11:11:58;;;;;;;0.50;0.50;;;;;;;16.99;22.38;100322.28;4927881;29;20051;-83
2023/04/17 11:14:25;;;;;;;0.57;0.57;;;;;;;16.98;22.26;100324.19;4927030;29;20051;-83
2023/04/17 11:17:11;;;;;;;0.50;0.50;;;;;;;17.45;21.76;100311.91;4946819;29;20534;-82
2023/04/17 11:19:41;;;;;;;0.60;0.60;;;;;;;18.60;21.28;100311.38;4924416;29;20134;-82
2023/04/17 11:22:10;;;;;;;0.60;0.60;;;;;;;19.79;20.08;100300.50;4925093;29;20067;-81
2023/04/17 11:24:37;;;;;;;0.80;0.80;;;;;;;20.86;19.49;100306.88;4946382;29;20043;-81
2023/04/17 11:27:05;;;;;;;0.50;0.50;;;;;;;20.98;18.38;100299.16;4956380;28;20137;-81
2023/04/17 11:29:33;;;;;;;0.63;0.63;;;;;;;18.99;19.82;100308.28;4945821;29;20077;-81
2023/04/17 11:32:00;;;;;;;0.60;0.60;;;;;;;19.56;19.38;100296.38;4936707;29;20587;-81
2023/04/17 11:34:30;;;;;;;0.60;0.60;;;;;;;19.67;18.99;100295.34;4946704;28;20066;-83
2023/04/17 11:36:59;;;;;;;0.40;0.40;;;;;;;19.37;19.72;100285.16;4947234;29;20534;-82
2023/04/17 11:39:32;;;;;;;0.40;0.40;;;;;;;18.43;20.84;100300.63;4954171;29;20643;-82
2023/04/17 11:42:01;;;;;;;0.50;0.50;;;;;;;17.26;21.82;100303.25;4948737;29;21462;-83
2023/04/17 11:44:28;;;;;;;0.60;0.60;;;;;;;17.09;22.22;100309.63;4943827;29;20518;-83
2023/04/17 11:49:50;;;;;;;0.50;0.50;;;;;;;17.74;22.32;100283.19;4955397;28;20051;-82